createdAt,value
2022-09-20T00:01:33.357Z,1.70
2022-09-20T00:04:05.783Z,0.70
2022-09-20T00:06:34.383Z,0.60
2022-09-20T00:09:03.815Z,0.80
2022-09-20T00:11:34.596Z,0.80
2022-09-20T00:14:06.142Z,0.90
2022-09-20T00:16:38.290Z,1.60
2022-09-20T00:19:08.066Z,0.70
2022-09-20T00:21:38.082Z,0.50
2022-09-20T00:24:06.319Z,0.50
2022-09-20T00:26:34.461Z,0.70
2022-09-20T00:29:02.728Z,0.20
2022-09-20T00:31:30.947Z,0.50
2022-09-20T00:34:17.914Z,0.60
2022-09-20T00:36:46.708Z,1.40
2022-09-20T00:39:16.622Z,0.30
2022-09-20T00:41:45.014Z,3.60
2022-09-20T00:44:57.717Z,1.20
2022-09-20T00:47:36.641Z,1.20
2022-09-20T00:50:22.953Z,4.10
2022-09-20T00:52:57.156Z,2.30
2022-09-20T00:55:26.516Z,1.00
2022-09-20T00:57:55.243Z,2.30
2022-09-20T01:00:23.318Z,4.50
2022-09-20T01:02:57.038Z,1.70
2022-09-20T01:05:26.136Z,1.30
2022-09-20T01:07:55.218Z,0.50
2022-09-20T01:10:23.290Z,0.40
2022-09-20T01:12:53.816Z,0.90
2022-09-20T01:15:23.479Z,0.60
2022-09-20T01:17:54.382Z,2.40
2022-09-20T01:20:32.366Z,0.90
2022-09-20T01:23:34.580Z,2.10
2022-09-20T01:26:17.664Z,0.90
2022-09-20T01:28:48.850Z,0.90
2022-09-20T01:31:26.075Z,1.70
2022-09-20T01:34:01.539Z,2.20
2022-09-20T01:37:01.867Z,4.30
2022-09-20T01:39:50.317Z,0.70
2022-09-20T01:42:18.491Z,0.50
2022-09-20T01:45:01.616Z,0.50
2022-09-20T01:48:07.883Z,1.70
2022-09-20T01:51:26.439Z,1.20
2022-09-20T01:54:03.425Z,0.40
2022-09-20T01:56:49.519Z,0.60
2022-09-20T01:59:32.709Z,3.40
2022-09-20T02:02:14.063Z,0.70
2022-09-20T02:04:51.730Z,5.20
2022-09-20T02:07:39.555Z,3.60
2022-09-20T02:10:07.778Z,2.70
2022-09-20T02:12:41.857Z,0.50
2022-09-20T02:15:57.837Z,0.90
2022-09-20T02:18:40.965Z,2.30
2022-09-20T02:21:29.237Z,5.60
2022-09-20T02:24:21.959Z,2.80
2022-09-20T02:26:58.944Z,2.90
2022-09-20T02:29:58.140Z,5.50
2022-09-20T02:33:03.593Z,5.60
2022-09-20T02:35:49.991Z,2.00
2022-09-20T02:38:55.285Z,2.80
2022-09-20T02:41:50.952Z,4.60
2022-09-20T02:44:22.816Z,0.70
2022-09-20T02:47:25.656Z,1.40
2022-09-20T02:50:06.268Z,1.40
2022-09-20T02:53:15.819Z,1.10
2022-09-20T02:56:07.642Z,4.50
2022-09-20T02:58:48.821Z,6.40
2022-09-20T03:01:33.514Z,2.80
2022-09-20T03:04:45.997Z,2.80
2022-09-20T03:07:40.075Z,1.80
2022-09-20T03:10:39.687Z,3.60
2022-09-20T03:13:13.597Z,1.90
2022-09-20T03:16:07.698Z,4.30
2022-09-20T03:19:03.194Z,2.80
2022-09-20T03:21:34.132Z,3.90
2022-09-20T03:24:02.106Z,2.60
2022-09-20T03:26:56.701Z,2.70
2022-09-20T03:29:39.923Z,2.00
2022-09-20T03:32:19.861Z,2.20
2022-09-20T03:34:56.859Z,2.60
2022-09-20T03:37:55.404Z,1.00
2022-09-20T03:40:51.477Z,6.10
2022-09-20T03:43:37.883Z,2.40
2022-09-20T03:46:21.804Z,2.20
2022-09-20T03:49:04.854Z,3.20
2022-09-20T03:51:41.407Z,2.90
2022-09-20T03:54:41.945Z,1.40
2022-09-20T03:57:27.935Z,1.80
2022-09-20T04:00:34.199Z,2.90
2022-09-20T04:03:20.094Z,2.80
2022-09-20T04:06:03.854Z,4.50
2022-09-20T04:09:09.684Z,1.30
2022-09-20T04:12:14.971Z,1.90
2022-09-20T04:14:54.550Z,3.50
2022-09-20T04:17:36.264Z,1.80
2022-09-20T04:20:21.444Z,2.60
2022-09-20T04:22:53.409Z,2.80
2022-09-20T04:25:27.938Z,1.70
2022-09-20T04:28:03.086Z,2.60
2022-09-20T04:30:37.602Z,1.60
2022-09-20T04:33:15.174Z,2.30
2022-09-20T04:36:29.331Z,2.30
2022-09-20T04:39:18.708Z,2.50
2022-09-20T04:42:01.835Z,3.70
2022-09-20T04:44:46.182Z,2.90
2022-09-20T04:47:39.032Z,1.90
2022-09-20T04:50:31.620Z,1.60
2022-09-20T04:53:24.447Z,1.80
2022-09-20T04:56:02.134Z,1.40
2022-09-20T04:58:47.201Z,2.90
2022-09-20T05:01:32.392Z,1.50
2022-09-20T05:04:25.303Z,3.20
2022-09-20T05:06:56.074Z,2.70
2022-09-20T05:09:37.956Z,6.30
2022-09-20T05:12:30.835Z,3.20
2022-09-20T05:15:20.253Z,1.90
2022-09-20T05:18:01.673Z,2.50
2022-09-20T05:20:48.076Z,3.60
2022-09-20T05:23:34.377Z,2.60
2022-09-20T05:26:29.783Z,3.30
2022-09-20T05:29:18.231Z,2.40
2022-09-20T05:32:23.270Z,2.70
2022-09-20T05:35:13.057Z,2.40
2022-09-20T05:38:00.180Z,3.00
2022-09-20T05:41:17.616Z,3.00
2022-09-20T05:44:23.977Z,2.90
2022-09-20T05:46:57.780Z,2.60
2022-09-20T05:49:50.730Z,2.60
2022-09-20T05:52:40.209Z,5.60
2022-09-20T05:55:17.185Z,4.20
2022-09-20T05:57:57.032Z,4.10
2022-09-20T06:00:32.006Z,4.10
2022-09-20T06:03:15.703Z,4.50
2022-09-20T06:06:02.107Z,2.90
2022-09-20T06:08:39.062Z,4.00
2022-09-20T06:11:37.743Z,4.10
2022-09-20T06:14:25.508Z,3.20
2022-09-20T06:17:05.363Z,2.30
2022-09-20T06:20:04.054Z,11.50
2022-09-20T06:22:42.857Z,2.60
2022-09-20T06:25:15.371Z,5.40
2022-09-20T06:27:51.916Z,7.00
2022-09-20T06:30:40.867Z,6.80
2022-09-20T06:33:15.915Z,3.90
2022-09-20T06:35:56.950Z,5.70
2022-09-20T06:39:04.465Z,3.50
2022-09-20T06:41:34.918Z,5.00
2022-09-20T06:44:06.617Z,3.10
2022-09-20T06:46:36.716Z,5.70
2022-09-20T06:49:07.091Z,4.50
2022-09-20T06:51:39.897Z,7.00
2022-09-20T06:54:12.792Z,18.20
2022-09-20T06:56:40.860Z,6.40
2022-09-20T06:59:10.565Z,6.20
2022-09-20T07:01:39.267Z,8.10
2022-09-20T07:04:09.495Z,12.40
2022-09-20T07:06:37.858Z,13.00
2022-09-20T07:09:06.338Z,6.00
2022-09-20T07:11:35.142Z,9.90
2022-09-20T07:14:03.624Z,10.30
2022-09-20T07:16:31.701Z,5.90
2022-09-20T07:19:00.671Z,7.30
2022-09-20T07:21:28.742Z,7.70
2022-09-20T07:23:58.143Z,5.60
2022-09-20T07:26:28.773Z,5.80
2022-09-20T07:28:59.075Z,5.70
2022-09-20T07:31:28.792Z,8.90
2022-09-20T07:33:56.986Z,4.20
2022-09-20T07:36:25.466Z,9.40
2022-09-20T07:38:53.689Z,5.70
2022-09-20T07:41:23.452Z,7.00
2022-09-20T07:43:51.961Z,5.90
2022-09-20T07:46:24.308Z,6.20
2022-09-20T07:48:52.485Z,7.30
2022-09-20T07:51:20.452Z,6.60
2022-09-20T07:53:48.353Z,6.80
2022-09-20T07:56:18.458Z,7.80
2022-09-20T07:58:52.214Z,6.10
2022-09-20T08:01:22.699Z,5.50
2022-09-20T08:03:52.177Z,6.60
2022-09-20T08:06:21.507Z,7.30
2022-09-20T08:08:51.778Z,8.20
2022-09-20T08:11:27.713Z,12.10
2022-09-20T08:16:40.889Z,17.10
2022-09-20T08:19:10.828Z,12.70
2022-09-20T08:21:39.094Z,10.40
2022-09-20T08:24:07.472Z,5.80
2022-09-20T08:26:35.982Z,10.80
2022-09-20T08:29:08.034Z,5.20
2022-09-20T08:31:40.347Z,7.40
2022-09-20T08:34:14.131Z,7.10
2022-09-20T08:36:46.316Z,4.90
2022-09-20T08:42:24.185Z,6.50
2022-09-20T08:44:58.652Z,6.80
2022-09-20T08:47:33.237Z,7.20
2022-09-20T08:50:17.539Z,7.20
2022-09-20T08:52:53.813Z,5.30
2022-09-20T08:55:37.691Z,6.30
2022-09-20T08:58:08.854Z,7.30
2022-09-20T09:00:39.277Z,4.90
2022-09-20T09:03:13.377Z,3.70
2022-09-20T09:05:46.588Z,4.10
2022-09-20T09:08:18.417Z,3.40
2022-09-20T09:10:54.205Z,5.10
2022-09-20T09:14:31.695Z,3.30
2022-09-20T09:17:00.965Z,4.10
2022-09-20T09:19:34.105Z,5.00
2022-09-20T09:22:05.930Z,4.50
2022-09-20T09:24:33.884Z,6.40
2022-09-20T09:27:20.074Z,4.30
2022-09-20T09:29:53.422Z,5.70
2022-09-20T09:32:25.142Z,4.50
2022-09-20T09:34:53.109Z,8.70
2022-09-20T09:37:31.841Z,5.80
2022-09-20T09:40:05.999Z,8.30
2022-09-20T09:42:34.129Z,5.70
2022-09-20T09:45:13.772Z,7.50
2022-09-20T09:47:41.704Z,5.50
2022-09-20T09:50:22.853Z,5.30
2022-09-20T09:53:02.963Z,4.70
2022-09-20T09:55:52.786Z,6.10
2022-09-20T09:58:28.702Z,4.00
2022-09-20T10:01:00.735Z,6.30
2022-09-20T10:04:07.418Z,4.50
2022-09-20T10:06:52.554Z,4.80
2022-09-20T10:09:46.050Z,5.30
2022-09-20T10:12:20.882Z,3.90
2022-09-20T10:15:23.180Z,3.80
2022-09-20T10:18:22.088Z,3.90
2022-09-20T10:21:25.595Z,4.30
2022-09-20T10:24:17.001Z,6.70
2022-09-20T10:26:50.921Z,6.20
2022-09-20T10:29:40.003Z,4.20
2022-09-20T10:32:32.225Z,4.30
2022-09-20T10:35:27.742Z,8.80
2022-09-20T10:38:21.836Z,3.70
2022-09-20T10:41:17.322Z,4.50
2022-09-20T10:44:05.952Z,5.40
2022-09-20T10:46:46.187Z,4.80
2022-09-20T10:49:50.986Z,2.90
2022-09-20T10:52:22.857Z,3.50
2022-09-20T10:55:09.475Z,3.30
2022-09-20T11:03:16.840Z,3.80
2022-09-20T11:06:10.236Z,4.00
2022-09-20T11:08:40.909Z,4.00
2022-09-20T11:11:13.347Z,4.30
2022-09-20T11:13:50.005Z,3.00
2022-09-20T11:16:23.428Z,5.10
2022-09-20T11:19:05.507Z,3.20
2022-09-20T11:21:52.683Z,5.40
2022-09-20T11:24:28.616Z,5.60
2022-09-20T11:27:15.913Z,2.70
2022-09-20T11:30:20.442Z,2.20
2022-09-20T11:32:53.223Z,3.70
2022-09-20T11:35:58.188Z,3.70
2022-09-20T11:38:37.494Z,2.10
2022-09-20T11:41:29.536Z,2.80
2022-09-20T11:44:07.856Z,3.50
2022-09-20T11:46:53.425Z,2.60
2022-09-20T11:49:26.997Z,3.90
2022-09-20T11:52:21.926Z,2.10
2022-09-20T11:54:55.860Z,1.80
2022-09-20T11:57:24.723Z,2.00
2022-09-20T11:59:56.705Z,2.80
2022-09-20T12:02:46.637Z,1.90
2022-09-20T12:05:33.060Z,2.80
2022-09-20T12:08:05.855Z,2.20
2022-09-20T12:10:39.573Z,4.70
2022-09-20T12:13:22.111Z,4.30
2022-09-20T12:16:09.534Z,2.90
2022-09-20T12:18:47.861Z,5.40
2022-09-20T12:21:20.909Z,2.60
2022-09-20T12:23:58.087Z,4.60
2022-09-20T12:26:25.951Z,2.90
2022-09-20T12:28:56.687Z,5.10
2022-09-20T12:31:33.764Z,5.30
2022-09-20T12:34:13.922Z,2.50
2022-09-20T12:36:54.699Z,1.60
2022-09-20T12:39:30.258Z,3.50
2022-09-20T12:44:31.829Z,2.20
2022-09-20T12:47:11.676Z,2.30
2022-09-20T12:50:04.192Z,2.00
2022-09-20T12:52:50.457Z,1.60
2022-09-20T12:55:27.587Z,4.80
2022-09-20T12:58:02.105Z,3.30
2022-09-20T13:00:38.254Z,3.30
2022-09-20T13:03:15.562Z,5.50
2022-09-20T13:05:52.682Z,2.70
2022-09-20T13:08:23.503Z,4.90
2022-09-20T13:11:07.114Z,3.70
2022-09-20T13:13:47.734Z,1.70
2022-09-20T13:16:24.150Z,2.50
2022-09-20T13:19:18.557Z,2.80
2022-09-20T13:22:10.470Z,2.70
2022-09-20T13:24:45.238Z,2.20
2022-09-20T13:27:22.482Z,3.20
2022-09-20T13:29:51.050Z,1.30
2022-09-20T13:32:23.751Z,2.00
2022-09-20T13:35:10.056Z,1.70
2022-09-20T13:38:03.110Z,2.90
2022-09-20T13:40:48.000Z,2.80
2022-09-20T13:43:24.618Z,2.10
2022-09-20T13:45:57.420Z,4.50
2022-09-20T13:48:30.332Z,1.50
2022-09-20T13:50:59.322Z,2.10
2022-09-20T13:53:41.890Z,3.00
2022-09-20T13:56:30.167Z,1.20
2022-09-20T13:59:05.263Z,4.30
2022-09-20T14:01:35.991Z,2.40
2022-09-20T14:04:08.888Z,2.20
2022-09-20T14:06:37.204Z,1.40
2022-09-20T14:09:11.005Z,1.70
2022-09-20T14:11:40.304Z,3.40
2022-09-20T14:14:10.556Z,4.10
2022-09-20T14:16:41.668Z,2.00
2022-09-20T14:19:15.678Z,3.50
2022-09-20T14:21:44.682Z,3.60
2022-09-20T14:24:15.714Z,2.40
2022-09-20T14:27:04.470Z,4.00
2022-09-20T14:29:40.128Z,3.00
2022-09-20T14:32:08.088Z,3.70
2022-09-20T14:34:38.213Z,2.30
2022-09-20T14:37:14.323Z,3.90
2022-09-20T14:42:51.168Z,2.50
2022-09-20T14:48:00.095Z,3.50
2022-09-20T14:50:40.808Z,6.20
2022-09-20T14:53:12.436Z,5.90
2022-09-20T14:55:55.573Z,5.60
2022-09-20T14:58:27.353Z,1.50
2022-09-20T15:01:01.382Z,2.80
2022-09-20T15:03:41.220Z,2.00
2022-09-20T15:06:14.838Z,2.60
2022-09-20T15:08:46.509Z,2.30
2022-09-20T15:11:16.050Z,3.50
2022-09-20T15:13:44.737Z,3.90
2022-09-20T15:16:14.982Z,6.50
2022-09-20T15:18:44.149Z,4.60
2022-09-20T15:21:12.392Z,4.90
2022-09-20T15:23:41.012Z,6.80
2022-09-20T15:26:12.051Z,2.50
2022-09-20T15:28:40.536Z,2.70
2022-09-20T15:31:10.929Z,3.40
2022-09-20T15:33:39.233Z,4.50
2022-09-20T15:36:08.231Z,4.80
2022-09-20T15:38:36.204Z,3.40
2022-09-20T15:41:04.883Z,2.30
2022-09-20T15:43:34.188Z,3.60
2022-09-20T15:46:19.728Z,2.80
2022-09-20T15:48:48.269Z,3.20
2022-09-20T15:51:16.850Z,3.40
2022-09-20T15:53:56.777Z,5.10
2022-09-20T15:56:28.129Z,5.40
2022-09-20T15:58:59.526Z,6.80
2022-09-20T16:01:33.820Z,7.80
2022-09-20T16:04:08.667Z,7.20
2022-09-20T16:06:38.618Z,5.40
2022-09-20T16:09:07.651Z,5.20
2022-09-20T16:11:36.088Z,7.60
2022-09-20T16:14:04.809Z,7.30
2022-09-20T16:16:39.146Z,9.20
2022-09-20T16:19:24.012Z,11.30
2022-09-20T16:21:58.658Z,8.30
2022-09-20T16:24:30.904Z,11.90
2022-09-20T16:27:01.339Z,10.60
2022-09-20T16:29:31.332Z,8.60
2022-09-20T16:32:00.953Z,9.70
2022-09-20T16:34:32.392Z,8.70
2022-09-20T16:37:06.706Z,8.40
2022-09-20T16:39:34.792Z,8.70
2022-09-20T16:42:05.365Z,6.70
2022-09-20T16:44:35.634Z,13.10
2022-09-20T16:47:09.144Z,12.50
2022-09-20T16:49:38.030Z,11.60
2022-09-20T16:52:07.220Z,9.90
2022-09-20T16:54:35.808Z,8.90
2022-09-20T16:57:05.226Z,18.30
2022-09-20T16:59:33.289Z,13.50
2022-09-20T17:02:01.330Z,7.50
2022-09-20T17:04:30.343Z,7.00
2022-09-20T17:06:58.939Z,10.20
2022-09-20T17:09:28.377Z,10.30
2022-09-20T17:11:56.719Z,12.30
2022-09-20T17:14:25.703Z,16.70
2022-09-20T17:16:53.879Z,14.40
2022-09-20T17:19:21.955Z,11.20
2022-09-20T17:21:51.291Z,9.30
2022-09-20T17:24:22.805Z,11.10
2022-09-20T17:26:51.898Z,15.70
2022-09-20T17:29:20.901Z,16.50
2022-09-20T17:31:55.655Z,13.80
2022-09-20T17:34:28.206Z,32.10
2022-09-20T17:36:56.302Z,18.90
2022-09-20T17:39:24.752Z,22.50
2022-09-20T17:41:53.029Z,19.90
2022-09-20T17:44:21.309Z,15.40
2022-09-20T17:46:51.089Z,21.20
2022-09-20T17:49:21.038Z,22.10
2022-09-20T17:51:54.697Z,19.20
2022-09-20T17:54:24.798Z,15.80
2022-09-20T17:56:56.111Z,18.10
2022-09-20T17:59:24.935Z,17.60
2022-09-20T18:01:54.529Z,19.60
2022-09-20T18:04:24.756Z,18.10
2022-09-20T18:06:54.234Z,13.90
2022-09-20T18:09:25.025Z,6.50
2022-09-20T18:11:54.979Z,7.70
2022-09-20T18:14:25.951Z,8.10
2022-09-20T18:16:58.215Z,12.50
2022-09-20T18:19:33.089Z,8.90
2022-09-20T18:22:02.347Z,13.10
2022-09-20T18:24:31.694Z,16.40
2022-09-20T18:27:01.212Z,13.20
2022-09-20T18:29:31.857Z,15.20
2022-09-20T18:32:00.958Z,18.00
2022-09-20T18:34:33.599Z,17.20
2022-09-20T18:37:03.947Z,16.90
2022-09-20T18:39:35.039Z,16.80
2022-09-20T18:42:04.098Z,19.90
2022-09-20T18:44:34.004Z,19.40
2022-09-20T18:47:04.238Z,16.30
2022-09-20T18:49:32.714Z,17.70
2022-09-20T18:52:01.200Z,13.60
2022-09-20T18:54:33.651Z,14.90
2022-09-20T18:57:02.683Z,20.30
2022-09-20T18:59:31.017Z,17.90
2022-09-20T19:02:27.482Z,18.20
2022-09-20T19:05:15.010Z,16.50
2022-09-20T19:08:21.900Z,17.90
2022-09-20T19:10:56.560Z,15.90
2022-09-20T19:13:24.491Z,20.60
2022-09-20T19:16:06.043Z,19.80
2022-09-20T19:19:07.835Z,21.00
2022-09-20T19:21:41.956Z,18.10
2022-09-20T19:24:25.304Z,13.90
2022-09-20T19:26:53.761Z,15.00
2022-09-20T19:29:25.333Z,13.30
2022-09-20T19:31:56.270Z,14.40
2022-09-20T19:34:27.929Z,13.80
2022-09-20T19:37:18.841Z,17.40
2022-09-20T19:40:05.683Z,13.50
2022-09-20T19:45:42.203Z,15.40
2022-09-20T19:48:22.084Z,17.10
2022-09-20T19:50:53.053Z,19.40
2022-09-20T19:53:24.259Z,19.40
2022-09-20T19:56:16.799Z,16.30
2022-09-20T19:58:45.579Z,17.70
2022-09-20T20:01:14.024Z,14.80
2022-09-20T20:03:44.519Z,17.00
2022-09-20T20:06:22.910Z,14.80
2022-09-20T20:09:11.055Z,19.30
2022-09-20T20:11:48.549Z,19.70
2022-09-20T20:14:43.855Z,19.80
2022-09-20T20:17:47.159Z,17.80
2022-09-20T20:20:44.127Z,16.70
2022-09-20T20:23:24.257Z,14.30
2022-09-20T20:26:03.210Z,13.80
2022-09-20T20:28:31.662Z,10.50
2022-09-20T20:31:02.370Z,10.70
2022-09-20T20:33:33.003Z,10.70
2022-09-20T20:36:02.439Z,8.20
2022-09-20T20:38:37.469Z,10.10
2022-09-20T20:41:11.589Z,11.80
2022-09-20T20:43:42.320Z,12.70
2022-09-20T20:46:14.332Z,21.30
2022-09-20T20:48:42.659Z,23.70
2022-09-20T20:51:13.810Z,26.10
2022-09-20T20:53:47.875Z,14.30
2022-09-20T20:56:28.898Z,17.00
2022-09-20T20:59:02.498Z,13.10
2022-09-20T21:01:31.735Z,11.60
2022-09-20T21:04:01.171Z,10.50
2022-09-20T21:06:32.039Z,11.00
2022-09-20T21:09:00.929Z,14.80
2022-09-20T21:11:34.735Z,14.30
2022-09-20T21:14:06.620Z,13.30
2022-09-20T21:16:37.670Z,18.00
2022-09-20T21:19:07.045Z,19.20
2022-09-20T21:21:38.778Z,20.00
2022-09-20T21:24:08.558Z,15.10
2022-09-20T21:26:38.219Z,16.00
2022-09-20T21:29:10.736Z,13.90
2022-09-20T21:31:41.015Z,14.30
2022-09-20T21:34:11.156Z,16.70
2022-09-20T21:36:41.663Z,14.30
2022-09-20T21:39:09.841Z,14.30
2022-09-20T21:41:39.443Z,16.20
2022-09-20T21:44:10.648Z,18.30
2022-09-20T21:46:41.485Z,15.40
2022-09-20T21:49:14.416Z,13.50
2022-09-20T21:51:43.200Z,15.80
2022-09-20T21:54:11.682Z,17.60
2022-09-20T21:56:41.308Z,14.50
2022-09-20T21:59:10.027Z,14.30
2022-09-20T22:01:41.454Z,17.40
2022-09-20T22:04:12.060Z,17.90
2022-09-20T22:06:42.659Z,16.20
2022-09-20T22:09:13.430Z,17.00
2022-09-20T22:11:44.805Z,17.10
2022-09-20T22:14:15.215Z,14.40
2022-09-20T22:16:45.162Z,14.40
2022-09-20T22:19:16.920Z,12.90
2022-09-20T22:21:47.954Z,13.60
2022-09-20T22:24:17.130Z,16.10
2022-09-20T22:26:50.312Z,13.30
2022-09-20T22:29:18.992Z,13.60
2022-09-20T22:31:50.266Z,14.30
2022-09-20T22:34:23.702Z,13.90
2022-09-20T22:36:52.633Z,13.00
2022-09-20T22:39:20.510Z,13.40
2022-09-20T22:41:51.029Z,13.10
2022-09-20T22:44:19.094Z,11.60
2022-09-20T22:46:47.275Z,12.60
2022-09-20T22:49:15.150Z,12.00
2022-09-20T22:51:43.314Z,13.10
2022-09-20T22:54:12.432Z,13.80
2022-09-20T22:56:43.863Z,13.30
2022-09-20T22:59:14.699Z,12.50
2022-09-20T23:01:47.344Z,15.20
2022-09-20T23:04:19.127Z,15.30
2022-09-20T23:06:54.963Z,15.90
2022-09-20T23:09:25.728Z,13.70
2022-09-20T23:11:53.801Z,16.90
2022-09-20T23:14:23.327Z,13.90
2022-09-20T23:16:51.543Z,13.40
2022-09-20T23:19:19.852Z,11.80
2022-09-20T23:21:47.995Z,12.70
2022-09-20T23:24:16.817Z,10.80
2022-09-20T23:26:45.313Z,14.60
2022-09-20T23:29:15.967Z,12.40
2022-09-20T23:31:47.146Z,13.10
2022-09-20T23:34:17.627Z,13.40
2022-09-20T23:36:46.779Z,14.00
2022-09-20T23:39:15.899Z,13.70
2022-09-20T23:41:48.432Z,13.90
2022-09-20T23:44:19.620Z,15.30
2022-09-20T23:46:47.800Z,14.60
2022-09-20T23:49:16.183Z,15.40
2022-09-20T23:51:44.110Z,15.60
2022-09-20T23:54:12.216Z,12.30
2022-09-20T23:56:41.826Z,13.70
2022-09-20T23:59:09.790Z,13.10
